18 Северо-Васюганская

Карта отелей и гостиниц, располагающихся рядом с аэропортом 18 Северо-Васюганская :

18 Северо-Васюганская Томская область 59° 21' 30.42" N, 78° 21' 37.44" E
18 Северо-Васюганская Томская область 59° 21' 30.42" N, 78° 21' 37.44" E
Код аэродрома ИКАО
UNSW
Код аэродрома RU
УНСВ
Координаты
N59.35845° E078.36040°
Превышение над уровнем моря
80
Основная полоса
04/22
Курс магнитный
035,1/215,1
Длина основной ВПП
78
Ширина основной ВПП
20
Покрытие основной ВПП
Твёрдое
Освещение ВПП
Нет
Тип: 
Вертодром
Класс аэродрома: 
Принадлежность: 
ГА
Статус: 
Действующий
Сайт: 
E-mail аэродрома: 
Страна: 
Россия
Регион: 
Томская область
Город: 
Дополнительная информация: 
Оператор: нет данных. PCN 14/R/B/W/U.

Найти трансфер

С помощью этой формы Вы можете найти трансфер из аэропорта 18 Северо-Васюганская в город, аэропорт или вокзал:

Карта места

Javascript is required to view this map.

Погода в аэропортах:

Авиационная погода в Хомутово

Регион: 
Погода METAR: 
UHSS 130900Z 17004MPS 9000 -SHRA SCT008 BKN027CB 07/06 Q0998 R19/250255 NOSIG RMK MT OBSC QFE747/0997
Время наблюдения
2021-04-13T09:00:00Z
Температура C
7.0
Точка росы
6.0
Направление ветра
170
Скорость ветра (узлы)
8
Метео видимость
5.59
Явления погоды
-SHRA
Условия полета
MVFR
Аэропорт подробнее: 

Авиационная погода в Ужгороде

Регион: 
Погода METAR: 
UKLU 130900Z 32007MPS 9999 -RA OVC040 10/04 Q1017 R10/290160 NOSIG
Время наблюдения
2021-04-13T09:00:00Z
Температура C
10.0
Точка росы
4.0
Направление ветра
320
Скорость ветра (узлы)
14
Метео видимость
6.21
Явления погоды
-RA
Условия полета
VFR
Аэропорт подробнее: 

Авиационная погода в Братске

Регион: 
Погода METAR: 
UIBB 130900Z 29010G16MPS 250V310 1400 0750SE R30/0750D +SHSN SCT005 BKN015CB 00/M01 Q1011 R30/290250 NOSIG RMK QBB150 MT OBSC QFE715/0954
Время наблюдения
2021-04-13T09:00:00Z
Температура C
0.0
Точка росы
-1.0
Направление ветра
290
Скорость ветра (узлы)
19
Метео видимость
0.87
Явления погоды
+SHSN
Условия полета
LIFR
Аэропорт подробнее: 

Авиационная погода в Угольном

Регион: 
Погода METAR: 
UHMA 130900Z 34006MPS 3800 -SN DRSN SCT020 BKN030 BKN045 M12/M14 Q1008 R01/////// NOSIG RMK TDZ R01/34006G07MPS END R01/34004G07MPS QFE753/1004
Время наблюдения
2021-04-13T09:00:00Z
Температура C
-12.0
Точка росы
-14.0
Направление ветра
340
Скорость ветра (узлы)
12
Метео видимость
2.36
Явления погоды
-SN DRSN
Условия полета
IFR
Аэропорт подробнее: